createdAt,value
2019-04-14T00:01:47.693Z,23.60
2019-04-14T00:04:34.018Z,26.37
2019-04-14T00:07:03.684Z,27.17
2019-04-14T00:09:33.728Z,27.10
2019-04-14T00:12:05.801Z,24.37
2019-04-14T00:14:34.261Z,25.60
2019-04-14T00:17:04.227Z,24.87
2019-04-14T00:19:34.666Z,26.43
2019-04-14T00:22:05.299Z,25.93
2019-04-14T00:24:35.744Z,25.60
2019-04-14T00:27:06.351Z,25.43
2019-04-14T00:29:37.040Z,25.63
2019-04-14T00:32:07.357Z,25.37
2019-04-14T00:34:55.012Z,26.57
2019-04-14T00:37:59.796Z,25.87
2019-04-14T00:40:35.039Z,27.83
2019-04-14T00:43:22.038Z,28.30
2019-04-14T00:46:00.519Z,26.23
2019-04-14T00:48:29.899Z,26.50
2019-04-14T00:51:00.482Z,28.57
2019-04-14T00:53:29.943Z,26.33
2019-04-14T00:55:59.741Z,26.83
2019-04-14T00:58:29.997Z,26.73
2019-04-14T01:01:00.431Z,26.80
2019-04-14T01:03:30.939Z,28.77
2019-04-14T01:06:01.155Z,28.00
2019-04-14T01:08:31.411Z,29.20
2019-04-14T01:11:01.095Z,27.67
2019-04-14T01:13:31.114Z,28.33
2019-04-14T01:16:07.034Z,27.23
2019-04-14T01:18:31.951Z,28.07
2019-04-14T01:21:02.411Z,27.70
2019-04-14T01:23:32.636Z,27.10
2019-04-14T01:26:02.928Z,27.07
2019-04-14T01:28:33.003Z,28.00
2019-04-14T01:31:03.372Z,28.43
2019-04-14T01:33:33.669Z,28.53
2019-04-14T01:36:03.981Z,26.00
2019-04-14T01:38:34.363Z,26.40
2019-04-14T01:41:04.241Z,29.73
2019-04-14T01:43:34.172Z,28.33
2019-04-14T01:46:11.590Z,27.67
2019-04-14T01:48:34.671Z,27.97
2019-04-14T01:51:11.380Z,26.70
2019-04-14T01:53:57.987Z,27.63
2019-04-14T01:56:45.010Z,28.03
2019-04-14T01:59:15.237Z,26.40
2019-04-14T02:01:45.697Z,27.63
2019-04-14T02:04:15.959Z,28.47
2019-04-14T02:06:46.252Z,27.87
2019-04-14T02:09:16.195Z,27.40
2019-04-14T02:11:46.608Z,27.23
2019-04-14T02:14:16.880Z,27.33
2019-04-14T02:16:52.156Z,26.67
2019-04-14T02:19:17.689Z,27.03
2019-04-14T02:21:47.787Z,27.27
2019-04-14T02:24:17.858Z,27.10
2019-04-14T02:26:47.999Z,28.33
2019-04-14T02:29:17.406Z,27.00
2019-04-14T02:32:17.343Z,25.73
2019-04-14T02:34:57.975Z,25.70
2019-04-14T02:39:54.231Z,28.10
2019-04-14T02:42:30.481Z,27.03
2019-04-14T02:49:51.044Z,27.77
2019-04-14T02:52:19.707Z,28.17
2019-04-14T03:04:56.401Z,29.30
2019-04-14T03:09:53.767Z,29.17
2019-04-14T03:15:20.169Z,28.30
2019-04-14T03:18:18.725Z,28.93
2019-04-14T03:20:59.124Z,25.93
2019-04-14T03:23:43.822Z,28.20
2019-04-14T03:26:08.309Z,27.57
2019-04-14T03:28:45.989Z,29.33
2019-04-14T03:34:16.941Z,28.63
2019-04-14T03:36:59.653Z,27.20
2019-04-14T03:38:58.843Z,28.43
2019-04-14T03:41:25.742Z,27.93
2019-04-14T03:43:48.390Z,28.67
2019-04-14T03:46:27.349Z,28.27
2019-04-14T03:51:31.442Z,26.83
2019-04-14T03:53:53.274Z,28.13
2019-04-14T03:56:37.797Z,28.03
2019-04-14T03:59:08.370Z,28.53
2019-04-14T04:01:39.080Z,29.77
2019-04-14T04:04:09.643Z,28.13
2019-04-14T04:06:39.939Z,28.87
2019-04-14T04:09:10.414Z,28.27
2019-04-14T04:11:41.111Z,28.00
2019-04-14T04:14:11.656Z,27.67
2019-04-14T04:17:02.096Z,26.63
2019-04-14T04:19:45.478Z,27.70
2019-04-14T04:22:32.575Z,27.43
2019-04-14T04:25:24.730Z,26.37
2019-04-14T04:28:28.040Z,27.13
2019-04-14T04:31:04.966Z,26.93
2019-04-14T04:33:42.131Z,26.03
2019-04-14T04:36:16.382Z,26.97
2019-04-14T04:38:59.612Z,27.50
2019-04-14T04:41:29.629Z,27.70
2019-04-14T04:43:58.994Z,29.67
2019-04-14T04:46:28.788Z,29.90
2019-04-14T04:49:08.196Z,31.20
2019-04-14T04:51:29.256Z,28.23
2019-04-14T04:53:59.467Z,29.07
2019-04-14T04:56:29.756Z,28.87
2019-04-14T04:58:59.151Z,28.53
2019-04-14T05:01:29.587Z,28.03
2019-04-14T05:04:00.251Z,27.30
2019-04-14T05:06:59.260Z,26.83
2019-04-14T05:10:04.689Z,25.97
2019-04-14T05:12:52.221Z,27.37
2019-04-14T05:15:35.869Z,26.20
2019-04-14T05:18:05.264Z,27.10
2019-04-14T05:20:35.561Z,26.97
2019-04-14T05:23:05.913Z,27.37
2019-04-14T05:25:36.525Z,26.50
2019-04-14T05:28:06.971Z,27.43
2019-04-14T05:30:37.173Z,26.03
2019-04-14T05:33:07.486Z,26.40
2019-04-14T05:35:37.943Z,26.77
2019-04-14T05:38:08.424Z,26.73
2019-04-14T05:40:38.613Z,26.10
2019-04-14T05:43:08.857Z,25.70
2019-04-14T05:45:39.435Z,27.13
2019-04-14T05:48:09.751Z,25.87
2019-04-14T05:50:40.058Z,26.60
2019-04-14T05:53:09.460Z,27.27
2019-04-14T05:55:39.532Z,27.67
2019-04-14T05:58:09.947Z,27.77
2019-04-14T06:00:42.124Z,27.00
2019-04-14T06:03:12.438Z,27.33
2019-04-14T06:05:42.797Z,26.77
2019-04-14T06:08:12.199Z,26.33
2019-04-14T06:10:41.596Z,25.63
2019-04-14T06:13:11.886Z,26.70
2019-04-14T06:15:41.371Z,26.30
2019-04-14T06:18:10.739Z,25.97
2019-04-14T06:20:40.151Z,26.03
2019-04-14T06:23:09.519Z,26.80
2019-04-14T06:25:38.932Z,24.47
2019-04-14T06:28:08.315Z,26.30
2019-04-14T06:30:55.299Z,25.57
2019-04-14T06:33:46.659Z,25.57
2019-04-14T06:36:33.443Z,26.47
2019-04-14T06:39:08.844Z,25.53
2019-04-14T06:41:38.230Z,26.60
2019-04-14T06:44:07.542Z,25.63
2019-04-14T06:46:36.966Z,25.60
2019-04-14T06:49:06.497Z,26.87
2019-04-14T06:51:35.874Z,26.43
2019-04-14T06:54:05.400Z,27.23
2019-04-14T06:56:34.762Z,26.03
2019-04-14T06:59:04.318Z,25.00
2019-04-14T07:01:33.772Z,25.70
2019-04-14T07:04:03.199Z,26.40
2019-04-14T07:06:32.605Z,25.27
2019-04-14T07:09:01.963Z,24.70
2019-04-14T07:11:31.360Z,27.00
2019-04-14T07:14:00.754Z,27.27
2019-04-14T07:16:30.091Z,25.93
2019-04-14T07:18:59.487Z,26.00
2019-04-14T07:21:28.866Z,27.43
2019-04-14T07:23:58.272Z,27.63
2019-04-14T07:26:27.671Z,26.87
2019-04-14T07:28:57.203Z,27.87
2019-04-14T07:31:48.302Z,26.93
2019-04-14T07:34:31.900Z,27.03
2019-04-14T07:37:38.461Z,28.23
2019-04-14T07:40:42.271Z,27.77
2019-04-14T07:43:26.093Z,25.97
2019-04-14T07:46:29.817Z,26.23
2019-04-14T07:49:05.387Z,28.53
2019-04-14T07:51:59.761Z,26.63
2019-04-14T07:54:45.968Z,27.97
2019-04-14T07:57:27.849Z,26.03
2019-04-14T08:00:19.339Z,27.93
2019-04-14T08:02:59.280Z,29.33
2019-04-14T08:05:36.569Z,27.73
2019-04-14T08:08:05.995Z,28.03
2019-04-14T08:10:35.419Z,28.63
2019-04-14T08:13:04.795Z,27.50
2019-04-14T08:15:34.592Z,28.37
2019-04-14T08:18:04.102Z,27.73
2019-04-14T08:20:33.638Z,28.90
2019-04-14T08:23:03.055Z,27.90
2019-04-14T08:25:32.431Z,28.40
2019-04-14T08:28:02.656Z,28.47
2019-04-14T08:30:32.050Z,27.40
2019-04-14T08:33:01.446Z,25.60
2019-04-14T08:35:30.879Z,27.63
2019-04-14T08:38:00.263Z,28.50
2019-04-14T08:40:29.679Z,28.87
2019-04-14T08:43:16.614Z,28.40
2019-04-14T08:46:03.335Z,27.93
2019-04-14T08:48:54.463Z,27.00
2019-04-14T08:51:28.215Z,27.87
2019-04-14T08:54:06.410Z,26.90
2019-04-14T08:56:50.745Z,26.43
2019-04-14T08:59:41.834Z,26.93
2019-04-14T09:02:30.272Z,27.70
2019-04-14T09:05:10.536Z,25.87
2019-04-14T09:08:01.664Z,25.97
2019-04-14T09:10:34.767Z,27.43
2019-04-14T09:13:05.459Z,25.60
2019-04-14T09:15:34.887Z,25.73
2019-04-14T09:18:05.405Z,27.00
2019-04-14T09:20:34.856Z,26.63
2019-04-14T09:23:04.519Z,27.37
2019-04-14T09:25:33.960Z,25.73
2019-04-14T09:28:03.368Z,25.13
2019-04-14T09:30:34.907Z,24.93
2019-04-14T09:33:04.318Z,25.27
2019-04-14T09:35:34.027Z,25.00
2019-04-14T09:38:03.403Z,25.70
2019-04-14T09:40:32.800Z,25.37
2019-04-14T09:43:02.302Z,25.90
2019-04-14T09:45:31.704Z,26.23
2019-04-14T09:48:01.106Z,26.90
2019-04-14T09:50:30.662Z,27.80
2019-04-14T09:53:00.080Z,27.83
2019-04-14T09:55:29.602Z,26.53
2019-04-14T09:57:59.146Z,27.03
2019-04-14T10:00:28.559Z,25.87
2019-04-14T10:02:58.026Z,25.60
2019-04-14T10:05:27.588Z,25.53
2019-04-14T10:07:57.051Z,27.63
2019-04-14T10:10:28.569Z,27.60
2019-04-14T10:12:57.641Z,26.23
2019-04-14T10:15:26.955Z,26.03
2019-04-14T10:17:56.391Z,24.87
2019-04-14T10:20:25.865Z,25.13
2019-04-14T10:22:55.215Z,25.10
2019-04-14T10:25:24.663Z,25.37
2019-04-14T10:27:54.123Z,25.93
2019-04-14T10:30:23.528Z,25.73
2019-04-14T10:32:52.942Z,26.13
2019-04-14T10:35:22.483Z,27.03
2019-04-14T10:37:51.883Z,26.03
2019-04-14T10:40:21.381Z,25.83
2019-04-14T10:42:50.780Z,27.10
2019-04-14T10:45:20.210Z,27.03
2019-04-14T10:47:49.623Z,25.03
2019-04-14T10:50:30.252Z,24.97
2019-04-14T10:52:50.154Z,25.43
2019-04-14T10:55:19.644Z,23.60
2019-04-14T10:57:49.229Z,24.90
2019-04-14T11:00:19.013Z,24.77
2019-04-14T11:02:48.527Z,23.80
2019-04-14T11:05:17.992Z,24.40
2019-04-14T11:07:47.424Z,24.90
2019-04-14T11:10:16.943Z,25.93
2019-04-14T11:12:46.331Z,26.27
2019-04-14T11:15:15.991Z,25.93
2019-04-14T11:17:45.387Z,26.43
2019-04-14T11:20:14.820Z,29.33
2019-04-14T11:22:44.319Z,28.30
2019-04-14T11:25:13.744Z,26.13
2019-04-14T11:27:43.129Z,25.50
2019-04-14T11:30:16.112Z,26.30
2019-04-14T11:33:16.403Z,24.57
2019-04-14T11:35:53.647Z,24.97
2019-04-14T11:38:32.195Z,22.57
2019-04-14T11:41:04.091Z,25.13
2019-04-14T11:43:33.517Z,25.97
2019-04-14T11:46:03.748Z,24.20
2019-04-14T11:48:33.601Z,24.93
2019-04-14T11:51:03.249Z,23.90
2019-04-14T11:53:32.702Z,23.90
2019-04-14T11:56:02.112Z,26.30
2019-04-14T11:58:32.285Z,24.47
2019-04-14T12:01:19.306Z,23.63
2019-04-14T12:04:02.854Z,25.53
2019-04-14T12:07:03.200Z,25.27
2019-04-14T12:09:35.381Z,24.93
2019-04-14T12:12:06.087Z,23.97
2019-04-14T12:14:35.483Z,24.77
2019-04-14T12:17:04.936Z,24.27
2019-04-14T12:19:34.291Z,25.27
2019-04-14T12:22:08.600Z,23.90
2019-04-14T12:24:34.867Z,24.80
2019-04-14T12:27:04.289Z,24.20
2019-04-14T12:29:34.732Z,24.33
2019-04-14T12:32:06.290Z,24.87
2019-04-14T12:34:35.835Z,25.20
2019-04-14T12:37:05.716Z,23.67
2019-04-14T12:39:35.506Z,25.40
2019-04-14T12:42:22.558Z,24.57
2019-04-14T12:45:13.804Z,22.83
2019-04-14T12:48:02.241Z,25.07
2019-04-14T12:50:38.241Z,23.80
2019-04-14T12:53:08.150Z,24.33
2019-04-14T12:55:37.567Z,24.30
2019-04-14T12:58:07.564Z,22.77
2019-04-14T13:00:43.049Z,25.10
2019-04-14T13:03:12.839Z,23.93
2019-04-14T13:05:42.400Z,25.80
2019-04-14T13:08:11.996Z,24.47
2019-04-14T13:10:41.787Z,25.93
2019-04-14T13:13:11.252Z,24.70
2019-04-14T13:15:40.645Z,23.97
2019-04-14T13:18:10.132Z,23.93
2019-04-14T13:20:39.622Z,22.33
2019-04-14T13:23:09.006Z,23.47
2019-04-14T13:25:38.434Z,23.90
2019-04-14T13:28:07.830Z,23.97
2019-04-14T13:30:40.512Z,23.67
2019-04-14T13:33:10.387Z,23.03
2019-04-14T13:35:39.843Z,22.93
2019-04-14T13:38:09.234Z,23.05
2019-04-14T13:40:38.633Z,22.87
2019-04-14T13:43:08.104Z,25.67
2019-04-14T13:45:37.531Z,23.40
2019-04-14T13:48:06.984Z,23.40
2019-04-14T13:50:36.459Z,23.27
2019-04-14T13:53:05.856Z,23.50
2019-04-14T13:55:35.322Z,21.77
2019-04-14T13:58:04.972Z,21.37
2019-04-14T14:00:34.586Z,21.57
2019-04-14T14:03:04.087Z,21.70
2019-04-14T14:05:34.290Z,21.97
2019-04-14T14:08:03.899Z,22.10
2019-04-14T14:10:33.647Z,23.52
2019-04-14T14:13:28.057Z,24.47
2019-04-14T14:16:16.294Z,22.43
2019-04-14T14:18:56.328Z,20.50
2019-04-14T14:21:43.958Z,20.77
2019-04-14T14:24:33.969Z,20.47
2019-04-14T14:27:03.821Z,20.92
2019-04-14T14:29:33.467Z,22.10
2019-04-14T14:32:05.204Z,21.70
2019-04-14T14:34:35.283Z,20.57
2019-04-14T14:37:04.861Z,20.50
2019-04-14T14:39:34.556Z,19.13
2019-04-14T14:42:04.159Z,20.40
2019-04-14T14:44:38.551Z,20.83
2019-04-14T14:47:20.241Z,22.63
2019-04-14T14:50:01.342Z,21.60
2019-04-14T14:52:31.592Z,23.10
2019-04-14T14:55:01.414Z,21.93
2019-04-14T14:57:30.898Z,22.00
2019-04-14T15:00:00.334Z,20.60
2019-04-14T15:02:29.742Z,20.10
2019-04-14T15:04:59.154Z,21.15
2019-04-14T15:07:28.564Z,21.23
2019-04-14T15:09:57.980Z,20.33
2019-04-14T15:12:27.365Z,20.37
2019-04-14T15:14:56.771Z,20.27
2019-04-14T15:17:26.711Z,20.53
2019-04-14T15:19:56.096Z,21.53
2019-04-14T15:22:26.904Z,22.67
2019-04-14T15:24:56.250Z,20.40
2019-04-14T15:27:25.677Z,20.83
2019-04-14T15:29:55.111Z,22.13
2019-04-14T15:32:24.510Z,21.67
2019-04-14T15:34:53.884Z,21.57
2019-04-14T15:37:23.578Z,20.80
2019-04-14T15:39:52.989Z,21.60
2019-04-14T15:42:22.507Z,23.77
2019-04-14T15:44:51.915Z,23.03
2019-04-14T15:47:21.427Z,23.23
2019-04-14T15:49:51.020Z,39.53
2019-04-14T15:52:20.505Z,80.83
2019-04-14T15:54:49.898Z,22.63
2019-04-14T15:57:32.946Z,19.93
2019-04-14T16:00:30.091Z,21.50
2019-04-14T16:03:24.219Z,22.67
2019-04-14T16:06:06.799Z,21.93
2019-04-14T16:08:43.648Z,21.43
2019-04-14T16:11:23.004Z,21.53
2019-04-14T16:14:21.989Z,21.93
2019-04-14T16:17:10.095Z,21.33
2019-04-14T16:19:45.860Z,21.03
2019-04-14T16:22:15.294Z,21.30
2019-04-14T16:24:45.010Z,21.57
2019-04-14T16:27:36.055Z,21.10
2019-04-14T16:30:22.595Z,21.23
2019-04-14T16:33:10.270Z,19.57
2019-04-14T16:35:39.839Z,20.93
2019-04-14T16:38:09.352Z,20.07
2019-04-14T16:40:39.079Z,18.67
2019-04-14T16:43:08.607Z,19.07
2019-04-14T16:45:38.028Z,19.37
2019-04-14T16:48:07.589Z,20.30
2019-04-14T16:50:37.254Z,18.23
2019-04-14T16:53:15.596Z,18.13
2019-04-14T16:56:03.235Z,19.10
2019-04-14T16:58:36.276Z,20.07
2019-04-14T17:01:08.579Z,17.97
2019-04-14T17:03:38.024Z,19.10
2019-04-14T17:06:07.436Z,18.53
2019-04-14T17:08:36.834Z,19.00
2019-04-14T17:11:06.401Z,19.47
2019-04-14T17:13:38.739Z,17.90
2019-04-14T17:16:42.123Z,19.67
2019-04-14T17:19:16.402Z,18.93
2019-04-14T17:21:53.247Z,19.50
2019-04-14T17:24:40.613Z,18.77
2019-04-14T17:27:18.163Z,19.57
2019-04-14T17:29:57.899Z,19.23
2019-04-14T17:32:46.893Z,19.60
2019-04-14T17:35:35.199Z,20.97
2019-04-14T17:38:08.868Z,20.63
2019-04-14T17:40:56.447Z,22.27
2019-04-14T17:43:38.828Z,18.30
2019-04-14T17:46:16.868Z,18.77
2019-04-14T17:49:14.155Z,19.27
2019-04-14T17:51:49.787Z,18.77
2019-04-14T17:54:46.242Z,19.80
2019-04-14T17:57:33.207Z,19.37
2019-04-14T18:00:21.789Z,19.27
2019-04-14T18:02:57.317Z,18.60
2019-04-14T18:05:45.652Z,18.93
2019-04-14T18:08:32.524Z,20.63
2019-04-14T18:11:13.937Z,20.90
2019-04-14T18:14:05.685Z,21.07
2019-04-14T18:16:45.763Z,20.60
2019-04-14T18:19:22.523Z,19.43
2019-04-14T18:21:52.531Z,28.17
2019-04-14T18:24:22.041Z,32.83
2019-04-14T18:26:51.625Z,43.43
2019-04-14T18:29:46.079Z,30.83
2019-04-14T18:32:26.018Z,49.57
2019-04-14T18:35:06.706Z,35.63
2019-04-14T18:37:55.149Z,20.83
2019-04-14T18:40:28.855Z,19.50
2019-04-14T18:43:32.635Z,20.20
2019-04-14T18:46:10.271Z,19.00
2019-04-14T18:48:49.924Z,19.27
2019-04-14T18:51:38.251Z,18.17
2019-04-14T18:54:29.367Z,18.03
2019-04-14T18:57:18.735Z,19.13
2019-04-14T19:00:09.564Z,19.07
2019-04-14T19:02:38.946Z,19.83
2019-04-14T19:05:08.396Z,20.07
2019-04-14T19:07:37.844Z,19.77
2019-04-14T19:10:07.713Z,19.60
2019-04-14T19:12:51.730Z,19.60
2019-04-14T19:15:58.167Z,19.57
2019-04-14T19:18:30.416Z,19.77
2019-04-14T19:21:02.986Z,21.37
2019-04-14T19:23:32.388Z,20.80
2019-04-14T19:26:01.803Z,22.20
2019-04-14T19:28:31.211Z,21.10
2019-04-14T19:31:00.775Z,20.30
2019-04-14T19:33:30.187Z,19.87
2019-04-14T19:35:59.601Z,19.17
2019-04-14T19:38:29.088Z,18.47
2019-04-14T19:40:58.526Z,20.30
2019-04-14T19:43:27.950Z,19.73
2019-04-14T19:45:57.570Z,18.93
2019-04-14T19:48:26.989Z,20.20
2019-04-14T19:50:56.430Z,19.50
2019-04-14T19:53:26.199Z,19.40
2019-04-14T19:55:55.660Z,19.57
2019-04-14T19:58:25.223Z,20.17
2019-04-14T20:00:59.089Z,19.40
2019-04-14T20:03:28.633Z,19.87
2019-04-14T20:05:58.140Z,19.80
2019-04-14T20:08:27.595Z,19.47
2019-04-14T20:10:57.222Z,19.57
2019-04-14T20:13:28.436Z,18.83
2019-04-14T20:16:09.351Z,20.60
2019-04-14T20:19:15.947Z,18.50
2019-04-14T20:21:58.100Z,18.70
2019-04-14T20:24:37.167Z,17.83
2019-04-14T20:27:16.325Z,18.77
2019-04-14T20:29:49.433Z,18.37
2019-04-14T20:32:24.304Z,18.53
2019-04-14T20:34:53.726Z,18.63
2019-04-14T20:37:23.176Z,18.33
2019-04-14T20:39:52.586Z,17.83
2019-04-14T20:42:22.040Z,17.73
2019-04-14T20:44:51.419Z,18.10
2019-04-14T20:47:20.848Z,17.40
2019-04-14T20:49:50.259Z,17.60
2019-04-14T20:52:19.679Z,18.27
2019-04-14T20:54:50.424Z,17.03
2019-04-14T20:57:19.839Z,17.60
2019-04-14T20:59:49.209Z,18.23
2019-04-14T21:02:46.799Z,17.80
2019-04-14T21:05:26.490Z,21.50
2019-04-14T21:08:15.237Z,16.40
2019-04-14T21:10:57.439Z,16.00
2019-04-14T21:13:35.707Z,15.73
2019-04-14T21:16:18.289Z,16.77
2019-04-14T21:18:53.094Z,17.27
2019-04-14T21:21:40.199Z,18.27
2019-04-14T21:24:17.767Z,17.10
2019-04-14T21:27:09.154Z,17.37
2019-04-14T21:29:44.114Z,16.40
2019-04-14T21:32:19.551Z,17.37
2019-04-14T21:35:14.124Z,17.23
2019-04-14T21:38:02.633Z,16.47
2019-04-14T21:40:46.394Z,15.23
2019-04-14T21:43:15.804Z,16.27
2019-04-14T21:45:45.211Z,16.77
2019-04-14T21:48:14.651Z,15.97
2019-04-14T21:50:44.026Z,15.97
2019-04-14T21:53:13.423Z,17.60
2019-04-14T21:55:42.719Z,16.37
2019-04-14T21:58:20.512Z,17.00
2019-04-14T22:01:53.726Z,16.30
2019-04-14T22:04:41.397Z,16.70
2019-04-14T22:07:38.611Z,17.37
2019-04-14T22:10:19.667Z,16.83
2019-04-14T22:12:49.291Z,18.17
2019-04-14T22:15:18.693Z,16.00
2019-04-14T22:17:48.072Z,16.93
2019-04-14T22:20:17.451Z,16.43
2019-04-14T22:22:46.876Z,16.47
2019-04-14T22:25:16.268Z,15.33
2019-04-14T22:27:45.768Z,15.57
2019-04-14T22:30:15.259Z,14.67
2019-04-14T22:32:44.670Z,16.53
2019-04-14T22:35:14.151Z,15.50
2019-04-14T22:37:43.542Z,15.70
2019-04-14T22:40:13.059Z,14.63
2019-04-14T22:42:42.446Z,15.10
2019-04-14T22:45:12.027Z,15.33
2019-04-14T22:47:41.469Z,15.40
2019-04-14T22:50:11.455Z,14.93
2019-04-14T22:52:41.947Z,15.73
2019-04-14T22:55:11.437Z,14.60
2019-04-14T22:57:40.852Z,14.63
2019-04-14T23:00:14.928Z,15.50
2019-04-14T23:02:57.575Z,14.47
2019-04-14T23:05:42.603Z,15.60
2019-04-14T23:08:31.002Z,15.30
2019-04-14T23:11:11.689Z,14.03
2019-04-14T23:14:02.810Z,15.13
2019-04-14T23:16:53.903Z,14.57
2019-04-14T23:19:36.959Z,13.87
2019-04-14T23:22:27.045Z,15.03
2019-04-14T23:24:56.414Z,13.90
2019-04-14T23:27:25.820Z,14.70
2019-04-14T23:29:55.308Z,15.07
2019-04-14T23:32:24.699Z,14.73
2019-04-14T23:34:54.075Z,14.77
2019-04-14T23:37:23.475Z,14.80
2019-04-14T23:39:52.864Z,14.90
2019-04-14T23:42:22.273Z,14.53
2019-04-14T23:44:51.624Z,16.00
2019-04-14T23:47:21.014Z,15.33
2019-04-14T23:49:50.509Z,14.70
2019-04-14T23:52:19.876Z,15.13
2019-04-14T23:54:49.283Z,15.20
2019-04-14T23:57:18.659Z,16.13
2019-04-14T23:59:48.079Z,15.23
